Time,TemperatureF,DewpointF,PressureIn,WindDirection,WindDirectionDegrees,WindSpeedMPH,WindSpeedGustMPH,Humidity,HourlyPrecipIn,Conditions,Clouds,dailyrainin,SoftwareType,DateUTC
2013-11-14 13:42:00,42.3,5.1,23.83,North,0,2.5,2.5,21,0.00,,,0.00,VWS V14.01,2013-11-14 20:42:00,
2013-11-14 13:43:00,42.3,5.1,23.83,North,0,2.5,2.5,21,0.00,,,0.00,VWS V14.01,2013-11-14 20:43:00,
2013-11-14 13:46:00,42.3,5.1,23.83,North,0,2.5,2.5,21,0.00,,,0.00,VWS V14.01,2013-11-14 20:46:00,
2013-11-14 13:47:00,42.3,5.1,23.83,North,0,2.5,2.5,21,0.00,,,0.00,VWS V14.01,2013-11-14 20:47:00,
2013-11-14 13:50:00,42.3,5.1,23.83,North,0,2.5,2.5,21,0.00,,,0.00,VWS V14.01,2013-11-14 20:50:00,
2013-11-14 13:51:00,42.3,5.1,23.83,North,0,2.5,2.5,21,0.00,,,0.00,VWS V14.01,2013-11-14 20:51:00,
2013-11-14 13:56:00,43.0,9.6,23.83,North,0,2.5,2.5,25,0.00,,,0.00,VWS V14.01,2013-11-14 20:56:00,
2013-11-14 13:57:00,43.0,9.6,23.83,North,0,2.5,2.5,25,0.00,,,0.00,VWS V14.01,2013-11-14 20:57:00,
2013-11-14 13:58:00,43.0,9.6,23.83,North,0,2.5,2.5,25,0.00,,,0.00,VWS V14.01,2013-11-14 20:58:00,
2013-11-14 13:59:00,43.0,9.6,23.83,North,0,2.5,2.5,25,0.00,,,0.00,VWS V14.01,2013-11-14 20:59:00,
2013-11-14 14:02:00,43.0,9.6,23.83,North,0,2.5,2.5,25,0.00,,,0.00,VWS V14.01,2013-11-14 21:02:00,
2013-11-14 14:04:00,43.0,9.6,23.83,North,0,2.5,2.5,25,0.00,,,0.00,VWS V14.01,2013-11-14 21:04:00,
2013-11-14 14:05:00,42.6,10.1,23.83,North,0,2.5,2.5,26,0.00,,,0.00,VWS V14.01,2013-11-14 21:05:00,
2013-11-14 14:06:00,42.6,10.1,23.83,North,0,2.5,2.5,26,0.00,,,0.00,VWS V14.01,2013-11-14 21:06:00,
2013-11-14 14:10:00,42.4,10.0,23.83,North,0,2.5,2.5,26,0.00,,,0.00,VWS V14.01,2013-11-14 21:10:00,
2013-11-14 14:11:00,42.4,10.0,23.83,North,0,2.5,2.5,26,0.00,,,0.00,VWS V14.01,2013-11-14 21:11:00,
2013-11-14 14:12:00,42.4,10.0,23.83,North,0,2.5,2.5,26,0.00,,,0.00,VWS V14.01,2013-11-14 21:12:00,
2013-11-14 14:14:00,42.4,7.3,23.80,North,0,2.5,2.5,23,0.00,,,0.00,VWS V14.01,2013-11-14 21:14:00,
2013-11-14 14:15:00,42.3,7.1,23.80,North,0,2.5,2.5,23,0.00,,,0.00,VWS V14.01,2013-11-14 21:15:00,
2013-11-14 15:01:00,43.0,9.6,23.83,North,0,2.5,2.5,25,0.00,,,0.00,VWS V14.01,2013-11-14 22:01:00,
2013-11-14 15:07:00,42.6,10.1,23.83,North,0,2.5,2.5,26,0.00,,,0.00,VWS V14.01,2013-11-14 22:07:00,
2013-11-14 15:12:00,42.4,10.0,23.83,North,0,2.5,2.5,26,0.00,,,0.00,VWS V14.01,2013-11-14 22:12:00,
2013-11-14 15:17:00,42.1,7.0,23.80,North,0,2.5,2.5,23,0.00,,,0.00,VWS V14.01,2013-11-14 22:17:00,
2013-11-14 15:22:00,42.1,7.0,23.80,North,0,2.5,2.5,23,0.00,,,0.00,VWS V14.01,2013-11-14 22:22:00,
2013-11-14 15:27:00,41.7,6.7,23.80,North,0,2.5,2.5,23,0.00,,,0.00,VWS V14.01,2013-11-14 22:27:00,
2013-11-14 15:32:00,41.5,6.5,23.80,North,0,2.5,2.5,23,0.00,,,0.00,VWS V14.01,2013-11-14 22:32:00,
2013-11-14 15:37:00,41.4,6.4,23.80,North,0,2.5,2.5,23,0.00,,,0.00,VWS V14.01,2013-11-14 22:37:00,
2013-11-14 15:42:00,41.2,6.2,23.77,North,0,2.5,2.5,23,0.00,,,0.00,VWS V14.01,2013-11-14 22:42:00,
2013-11-14 15:47:00,41.0,6.1,23.77,North,0,2.5,2.5,23,0.00,,,0.00,VWS V14.01,2013-11-14 22:47:00,
2013-11-14 15:52:00,40.8,5.9,23.77,North,0,2.5,2.5,23,0.00,,,0.00,VWS V14.01,2013-11-14 22:52:00,
2013-11-14 15:58:00,40.6,5.8,23.77,North,0,2.5,2.5,23,0.00,,,0.00,VWS V14.01,2013-11-14 22:58:00,
2013-11-14 16:03:00,40.5,5.6,23.77,North,0,2.5,2.5,23,0.00,,,0.00,VWS V14.01,2013-11-14 23:03:00,
2013-11-14 16:08:00,40.3,5.4,23.77,North,0,2.5,2.5,23,0.00,,,0.00,VWS V14.01,2013-11-14 23:08:00,
2013-11-14 16:13:00,40.1,5.3,23.77,North,0,2.5,2.5,23,0.00,,,0.00,VWS V14.01,2013-11-14 23:13:00,
2013-11-14 16:18:00,39.9,5.1,23.77,North,0,2.5,2.5,23,0.00,,,0.00,VWS V14.01,2013-11-14 23:18:00,
2013-11-14 16:23:00,39.7,5.0,23.77,North,0,2.5,2.5,23,0.00,,,0.00,VWS V14.01,2013-11-14 23:23:00,
2013-11-14 16:28:00,39.7,5.0,23.77,North,0,2.5,2.5,23,0.00,,,0.00,VWS V14.01,2013-11-14 23:28:00,
2013-11-14 16:33:00,39.6,4.8,23.77,North,0,2.5,2.5,23,0.00,,,0.00,VWS V14.01,2013-11-14 23:33:00,
2013-11-14 16:38:00,39.4,4.7,23.77,North,0,2.5,2.5,23,0.00,,,0.00,VWS V14.01,2013-11-14 23:38:00,
2013-11-14 16:43:00,39.2,4.5,23.77,North,0,2.5,2.5,23,0.00,,,0.00,VWS V14.01,2013-11-14 23:43:00,
2013-11-14 16:48:00,38.7,5.0,23.77,North,0,2.5,2.5,24,0.00,,,0.00,VWS V14.01,2013-11-14 23:48:00,
2013-11-14 16:53:00,38.3,4.7,23.77,North,0,2.5,2.5,24,0.00,,,0.00,VWS V14.01,2013-11-14 23:53:00,
2013-11-14 16:58:00,38.1,4.5,23.77,North,0,2.5,2.5,24,0.00,,,0.00,VWS V14.01,2013-11-14 23:58:00,
2013-11-14 17:03:00,37.8,4.2,23.74,North,0,2.5,2.5,24,0.00,,,0.00,VWS V14.01,2013-11-15 00:03:00,
2013-11-14 17:08:00,37.8,4.2,23.74,North,0,2.5,2.5,24,0.00,,,0.00,VWS V14.01,2013-11-15 00:08:00,
2013-11-14 17:13:00,37.6,4.1,23.71,North,0,2.5,2.5,24,0.00,,,0.00,VWS V14.01,2013-11-15 00:13:00,
2013-11-14 17:18:00,37.6,4.1,23.71,North,0,2.5,2.5,24,0.00,,,0.00,VWS V14.01,2013-11-15 00:18:00,
2013-11-14 17:23:00,37.4,5.7,23.71,North,0,2.5,2.5,26,0.00,,,0.00,VWS V14.01,2013-11-15 00:23:00,
2013-11-14 17:28:00,37.4,5.7,23.74,North,0,2.5,2.5,26,0.00,,,0.00,VWS V14.01,2013-11-15 00:28:00,
2013-11-14 17:33:00,37.6,5.8,23.74,North,0,2.5,2.5,26,0.00,,,0.00,VWS V14.01,2013-11-15 00:33:00,
2013-11-14 17:38:00,37.8,6.0,23.74,North,0,2.5,2.5,26,0.00,,,0.00,VWS V14.01,2013-11-15 00:38:00,
2013-11-14 17:40:00,38.1,6.3,23.71,North,0,2.5,2.5,26,0.00,,,0.00,VWS V14.01,2013-11-15 00:40:00,
2013-11-14 17:41:00,38.1,6.3,23.71,North,0,2.5,2.5,26,0.00,,,0.21,VWS V14.01,2013-11-15 00:41:00,
2013-11-14 17:42:00,38.1,6.3,23.68,North,0,2.5,2.5,26,0.00,,,0.21,VWS V14.01,2013-11-15 00:42:00,
2013-11-14 17:43:00,37.8,6.0,23.71,North,0,2.5,2.5,26,0.00,,,0.00,VWS V14.01,2013-11-15 00:43:00,
2013-11-14 17:44:00,38.1,6.3,23.68,North,0,2.5,2.5,26,0.00,,,0.21,VWS V14.01,2013-11-15 00:44:00,
2013-11-14 17:45:00,38.1,6.3,23.68,North,0,2.5,2.5,26,0.00,,,0.21,VWS V14.01,2013-11-15 00:45:00,
2013-11-14 17:46:00,38.1,6.3,23.68,North,0,2.5,2.5,26,0.00,,,0.21,VWS V14.01,2013-11-15 00:46:00,
2013-11-14 17:47:00,38.3,6.4,23.68,North,0,2.5,2.5,26,0.00,,,0.21,VWS V14.01,2013-11-15 00:47:00,
2013-11-14 17:48:00,37.9,6.1,23.71,North,0,2.5,2.5,26,0.00,,,0.00,VWS V14.01,2013-11-15 00:48:00,
2013-11-14 17:49:00,38.3,6.4,23.68,North,0,2.5,2.5,26,0.00,,,0.21,VWS V14.01,2013-11-15 00:49:00,
2013-11-14 17:51:00,38.3,6.4,23.68,North,0,2.5,2.5,26,0.00,,,0.21,VWS V14.01,2013-11-15 00:51:00,
2013-11-14 17:52:00,38.1,6.3,23.68,North,0,2.5,2.5,26,0.00,,,0.21,VWS V14.01,2013-11-15 00:52:00,
2013-11-14 17:53:00,38.1,6.3,23.68,North,0,2.5,2.5,26,0.00,,,0.21,VWS V14.01,2013-11-15 00:53:00,
2013-11-14 17:54:00,37.9,6.1,23.71,North,0,2.5,2.5,26,0.00,,,0.00,VWS V14.01,2013-11-15 00:54:00,
2013-11-14 17:55:00,38.1,6.3,23.68,North,0,2.5,2.5,26,0.00,,,0.21,VWS V14.01,2013-11-15 00:55:00,
2013-11-14 17:56:00,38.1,6.3,23.68,North,0,2.5,2.5,26,0.00,,,0.21,VWS V14.01,2013-11-15 00:56:00,
2013-11-14 17:57:00,38.1,6.3,23.68,North,0,2.5,2.5,26,0.00,,,0.21,VWS V14.01,2013-11-15 00:57:00,
2013-11-14 17:58:00,38.1,6.3,23.71,North,0,2.5,2.5,26,0.00,,,0.21,VWS V14.01,2013-11-15 00:58:00,
2013-11-14 17:59:00,37.8,6.0,23.71,North,0,2.5,2.5,26,0.00,,,0.00,VWS V14.01,2013-11-15 00:59:00,
2013-11-14 18:00:00,38.1,6.3,23.71,North,0,2.5,2.5,26,0.00,,,0.00,VWS V14.01,2013-11-15 01:00:00,
2013-11-14 18:01:00,37.9,6.1,23.71,North,0,2.5,2.5,26,0.00,,,0.21,VWS V14.01,2013-11-15 01:01:00,
2013-11-14 18:02:00,37.9,6.1,23.71,North,0,2.5,2.5,26,0.00,,,0.21,VWS V14.01,2013-11-15 01:02:00,
2013-11-14 18:03:00,37.9,6.1,23.71,North,0,2.5,2.5,26,0.00,,,0.21,VWS V14.01,2013-11-15 01:03:00,
2013-11-14 18:04:00,37.8,6.0,23.71,North,0,2.5,2.5,26,0.00,,,0.00,VWS V14.01,2013-11-15 01:04:00,
2013-11-14 18:07:00,37.8,6.0,23.71,North,0,2.5,2.5,26,0.00,,,0.21,VWS V14.01,2013-11-15 01:07:00,
2013-11-14 18:08:00,37.6,5.8,23.71,North,0,2.5,2.5,26,0.00,,,0.21,VWS V14.01,2013-11-15 01:08:00,
2013-11-14 18:09:00,37.9,6.1,23.71,North,0,2.5,2.5,26,0.00,,,0.00,VWS V14.01,2013-11-15 01:09:00,
2013-11-14 18:11:00,37.6,5.8,23.71,North,0,2.5,2.5,26,0.00,,,0.21,VWS V14.01,2013-11-15 01:11:00,
2013-11-14 18:12:00,37.4,5.7,23.71,North,0,2.5,2.5,26,0.00,,,0.21,VWS V14.01,2013-11-15 01:12:00,
2013-11-14 18:14:00,37.8,6.0,23.71,North,0,2.5,2.5,26,0.00,,,0.00,VWS V14.01,2013-11-15 01:14:00,
2013-11-14 18:15:00,37.0,6.2,23.71,North,0,2.5,2.5,27,0.00,,,0.21,VWS V14.01,2013-11-15 01:15:00,
2013-11-14 18:16:00,37.0,6.2,23.71,North,0,2.5,2.5,27,0.00,,,0.21,VWS V14.01,2013-11-15 01:16:00,
2013-11-14 18:17:00,37.0,6.2,23.71,North,0,2.5,2.5,27,0.00,,,0.21,VWS V14.01,2013-11-15 01:17:00,
2013-11-14 18:19:00,37.8,6.0,23.71,North,0,2.5,2.5,26,0.00,,,0.00,VWS V14.01,2013-11-15 01:19:00,
2013-11-14 18:20:00,36.9,6.0,23.71,North,0,2.5,2.5,27,0.00,,,0.21,VWS V14.01,2013-11-15 01:20:00,
2013-11-14 18:24:00,37.6,5.8,23.71,North,0,2.5,2.5,26,0.00,,,0.00,VWS V14.01,2013-11-15 01:24:00,
2013-11-14 18:29:00,37.8,6.0,23.71,North,0,2.5,2.5,26,0.00,,,0.00,VWS V14.01,2013-11-15 01:29:00,
2013-11-14 18:34:00,38.1,6.3,23.71,North,0,2.5,2.5,26,0.00,,,0.00,VWS V14.01,2013-11-15 01:34:00,
2013-11-14 18:43:00,38.1,6.3,23.68,North,0,2.5,2.5,26,0.00,,,0.21,VWS V14.01,2013-11-15 01:43:00,
2013-11-14 18:53:00,38.1,6.3,23.68,North,0,2.5,2.5,26,0.00,,,0.21,VWS V14.01,2013-11-15 01:53:00,
2013-11-14 18:58:00,38.1,6.3,23.68,North,0,2.5,2.5,26,0.00,,,0.21,VWS V14.01,2013-11-15 01:58:00,
2013-11-14 19:03:00,37.9,6.1,23.71,North,0,2.5,2.5,26,0.00,,,0.21,VWS V14.01,2013-11-15 02:03:00,
2013-11-14 19:08:00,37.6,5.8,23.71,North,0,2.5,2.5,26,0.00,,,0.21,VWS V14.01,2013-11-15 02:08:00,
2013-11-14 19:09:00,34.3,6.1,23.71,North,0,2.5,2.5,30,0.00,,,0.21,VWS V14.01,2013-11-15 02:09:00,
2013-11-14 19:11:00,34.9,7.3,23.71,North,0,2.5,2.5,31,0.00,,,0.21,VWS V14.01,2013-11-15 02:11:00,
2013-11-14 19:13:00,37.4,5.7,23.71,North,0,2.5,2.5,26,0.00,,,0.21,VWS V14.01,2013-11-15 02:13:00,
2013-11-14 19:18:00,37.0,6.2,23.71,North,0,2.5,2.5,27,0.00,,,0.21,VWS V14.01,2013-11-15 02:18:00,
2013-11-14 19:23:00,36.7,5.9,23.71,North,0,2.5,2.5,27,0.00,,,0.21,VWS V14.01,2013-11-15 02:23:00,
2013-11-14 19:28:00,36.5,7.3,23.71,North,0,2.5,2.5,29,0.00,,,0.21,VWS V14.01,2013-11-15 02:28:00,
2013-11-14 19:29:00,35.4,7.8,23.68,North,0,2.5,2.5,31,0.00,,,0.21,VWS V14.01,2013-11-15 02:29:00,
2013-11-14 19:30:00,35.4,7.8,23.68,North,0,2.5,2.5,31,0.00,,,0.21,VWS V14.01,2013-11-15 02:30:00,
2013-11-14 19:31:00,35.4,7.8,23.68,North,0,2.5,2.5,31,0.00,,,0.21,VWS V14.01,2013-11-15 02:31:00,
2013-11-14 19:32:00,35.4,7.8,23.68,North,0,2.5,2.5,31,0.00,,,0.21,VWS V14.01,2013-11-15 02:32:00,
2013-11-14 19:33:00,36.3,7.1,23.71,North,0,2.5,2.5,29,0.00,,,0.21,VWS V14.01,2013-11-15 02:33:00,
2013-11-14 19:34:00,35.2,7.7,23.68,North,0,2.5,2.5,31,0.00,,,0.21,VWS V14.01,2013-11-15 02:34:00,
2013-11-14 19:35:00,35.2,7.7,23.68,North,0,2.5,2.5,31,0.00,,,0.21,VWS V14.01,2013-11-15 02:35:00,
2013-11-14 19:36:00,35.1,7.5,23.68,North,0,2.5,2.5,31,0.00,,,0.21,VWS V14.01,2013-11-15 02:36:00,
2013-11-14 19:37:00,35.1,7.5,23.68,North,0,2.5,2.5,31,0.00,,,0.21,VWS V14.01,2013-11-15 02:37:00,
2013-11-14 19:38:00,36.0,6.8,23.71,North,0,2.5,2.5,29,0.00,,,0.21,VWS V14.01,2013-11-15 02:38:00,
2013-11-14 19:39:00,35.1,7.5,23.68,North,0,2.5,2.5,31,0.00,,,0.21,VWS V14.01,2013-11-15 02:39:00,
2013-11-14 19:40:00,35.1,7.5,23.68,North,0,2.5,2.5,31,0.00,,,0.21,VWS V14.01,2013-11-15 02:40:00,
2013-11-14 19:41:00,35.1,7.5,23.68,North,0,2.5,2.5,31,0.00,,,0.21,VWS V14.01,2013-11-15 02:41:00,
2013-11-14 19:42:00,35.1,7.5,23.68,North,0,2.5,2.5,31,0.00,,,0.21,VWS V14.01,2013-11-15 02:42:00,
2013-11-14 19:43:00,35.1,7.5,23.68,North,0,2.5,2.5,31,0.00,,,0.21,VWS V14.01,2013-11-15 02:43:00,
2013-11-14 19:44:00,35.6,6.5,23.71,North,0,2.5,2.5,29,0.00,,,0.21,VWS V14.01,2013-11-15 02:44:00,
2013-11-14 19:45:00,34.9,7.3,23.68,North,0,2.5,2.5,31,0.00,,,0.21,VWS V14.01,2013-11-15 02:45:00,
2013-11-14 19:46:00,34.9,7.3,23.68,North,0,2.5,2.5,31,0.00,,,0.21,VWS V14.01,2013-11-15 02:46:00,
2013-11-14 19:48:00,34.7,7.2,23.68,North,0,2.5,2.5,31,0.00,,,0.21,VWS V14.01,2013-11-15 02:48:00,
2013-11-14 19:49:00,35.2,6.9,23.71,North,0,2.5,2.5,30,0.00,,,0.21,VWS V14.01,2013-11-15 02:49:00,
2013-11-14 19:54:00,34.7,6.4,23.71,North,0,2.5,2.5,30,0.00,,,0.21,VWS V14.01,2013-11-15 02:54:00,
2013-11-14 19:59:00,34.3,6.1,23.71,North,0,2.5,2.5,30,0.00,,,0.21,VWS V14.01,2013-11-15 02:59:00,
2013-11-14 20:04:00,34.2,6.0,23.71,North,0,2.5,2.5,30,0.00,,,0.21,VWS V14.01,2013-11-15 03:04:00,
2013-11-14 20:28:00,35.6,7.2,23.71,North,0,2.5,2.5,30,0.00,,,0.21,VWS V14.01,2013-11-15 03:28:00,
2013-11-14 20:33:00,35.2,7.7,23.68,North,0,2.5,2.5,31,0.00,,,0.21,VWS V14.01,2013-11-15 03:33:00,
2013-11-14 20:38:00,35.1,7.5,23.68,North,0,2.5,2.5,31,0.00,,,0.21,VWS V14.01,2013-11-15 03:38:00,
2013-11-14 20:43:00,34.9,7.3,23.68,North,0,2.5,2.5,31,0.00,,,0.21,VWS V14.01,2013-11-15 03:43:00,
2013-11-14 20:49:00,34.7,7.2,23.68,North,0,2.5,2.5,31,0.00,,,0.21,VWS V14.01,2013-11-15 03:49:00,
2013-11-14 20:54:00,34.5,7.7,23.68,North,0,2.5,2.5,32,0.00,,,0.21,VWS V14.01,2013-11-15 03:54:00,
2013-11-14 20:59:00,34.3,8.2,23.68,North,0,2.5,2.5,33,0.00,,,0.21,VWS V14.01,2013-11-15 03:59:00,
2013-11-14 21:01:00,34.3,11.4,23.68,North,0,2.5,2.5,38,0.00,,,0.21,VWS V14.01,2013-11-15 04:01:00,
2013-11-14 21:02:00,34.3,11.4,23.68,North,0,2.5,2.5,38,0.00,,,0.21,VWS V14.01,2013-11-15 04:02:00,
2013-11-14 21:03:00,34.3,11.4,23.68,North,0,2.5,2.5,38,0.00,,,0.21,VWS V14.01,2013-11-15 04:03:00,
2013-11-14 21:04:00,34.0,7.9,23.68,North,0,2.5,2.5,33,0.00,,,0.21,VWS V14.01,2013-11-15 04:04:00,
2013-11-14 21:05:00,34.3,11.4,23.68,North,0,2.5,2.5,38,0.00,,,0.21,VWS V14.01,2013-11-15 04:05:00,
2013-11-14 21:06:00,34.3,11.4,23.68,North,0,2.5,2.5,38,0.00,,,0.21,VWS V14.01,2013-11-15 04:06:00,
2013-11-14 21:07:00,34.3,11.4,23.68,North,0,2.5,2.5,38,0.00,,,0.21,VWS V14.01,2013-11-15 04:07:00,
2013-11-14 21:08:00,34.2,11.2,23.68,North,0,2.5,2.5,38,0.00,,,0.21,VWS V14.01,2013-11-15 04:08:00,
2013-11-14 21:09:00,34.0,8.6,23.68,North,0,2.5,2.5,34,0.00,,,0.21,VWS V14.01,2013-11-15 04:09:00,
2013-11-14 21:10:00,34.2,11.2,23.68,North,0,2.5,2.5,38,0.00,,,0.21,VWS V14.01,2013-11-15 04:10:00,
2013-11-14 21:11:00,34.2,11.2,23.68,North,0,2.5,2.5,38,0.00,,,0.21,VWS V14.01,2013-11-15 04:11:00,
2013-11-14 21:12:00,34.0,11.1,23.68,North,0,2.5,2.5,38,0.00,,,0.21,VWS V14.01,2013-11-15 04:12:00,
2013-11-14 21:13:00,34.0,11.1,23.68,North,0,2.5,2.5,38,0.00,,,0.21,VWS V14.01,2013-11-15 04:13:00,
2013-11-14 21:14:00,33.8,9.1,23.65,North,0,2.5,2.5,35,0.00,,,0.21,VWS V14.01,2013-11-15 04:14:00,
2013-11-14 21:15:00,34.0,11.1,23.65,North,0,2.5,2.5,38,0.00,,,0.21,VWS V14.01,2013-11-15 04:15:00,
2013-11-14 21:16:00,33.8,10.9,23.65,North,0,2.5,2.5,38,0.00,,,0.21,VWS V14.01,2013-11-15 04:16:00,
2013-11-14 21:17:00,33.8,10.9,23.65,North,0,2.5,2.5,38,0.00,,,0.21,VWS V14.01,2013-11-15 04:17:00,
2013-11-14 21:18:00,33.8,10.9,23.65,North,0,2.5,2.5,38,0.00,,,0.21,VWS V14.01,2013-11-15 04:18:00,
2013-11-14 21:19:00,34.0,9.9,23.65,North,0,2.5,2.5,36,0.00,,,0.21,VWS V14.01,2013-11-15 04:19:00,
2013-11-14 21:20:00,33.8,10.9,23.65,North,0,2.5,2.5,38,0.00,,,0.21,VWS V14.01,2013-11-15 04:20:00,
2013-11-14 21:21:00,33.8,10.9,23.65,North,0,2.5,2.5,38,0.00,,,0.21,VWS V14.01,2013-11-15 04:21:00,
2013-11-14 21:22:00,34.0,10.5,23.65,North,0,2.5,2.5,37,0.00,,,0.21,VWS V14.01,2013-11-15 04:22:00,
2013-11-14 21:23:00,34.0,10.5,23.65,North,0,2.5,2.5,37,0.00,,,0.21,VWS V14.01,2013-11-15 04:23:00,
2013-11-14 21:24:00,34.0,10.5,23.65,North,0,2.5,2.5,37,0.00,,,0.21,VWS V14.01,2013-11-15 04:24:00,
2013-11-14 21:25:00,34.3,10.8,23.65,North,0,2.5,2.5,37,0.00,,,0.21,VWS V14.01,2013-11-15 04:25:00,
2013-11-14 21:28:00,34.7,11.1,23.65,North,0,2.5,2.5,37,0.00,,,0.21,VWS V14.01,2013-11-15 04:28:00,
2013-11-14 21:29:00,34.0,10.5,23.68,North,0,2.5,2.5,37,0.00,,,0.21,VWS V14.01,2013-11-15 04:29:00,
2013-11-14 21:30:00,35.1,11.4,23.65,North,0,2.5,2.5,37,0.00,,,0.21,VWS V14.01,2013-11-15 04:30:00,
2013-11-14 21:32:00,35.1,11.4,23.65,North,0,2.5,2.5,37,0.00,,,0.21,VWS V14.01,2013-11-15 04:32:00,
2013-11-14 21:33:00,35.1,11.4,23.65,North,0,2.5,2.5,37,0.00,,,0.21,VWS V14.01,2013-11-15 04:33:00,
2013-11-14 21:34:00,34.0,10.5,23.68,North,0,2.5,2.5,37,0.00,,,0.21,VWS V14.01,2013-11-15 04:34:00,
2013-11-14 21:36:00,35.4,11.1,23.65,North,0,2.5,2.5,36,0.00,,,0.21,VWS V14.01,2013-11-15 04:36:00,
2013-11-14 21:37:00,35.4,11.1,23.65,North,0,2.5,2.5,36,0.00,,,0.21,VWS V14.01,2013-11-15 04:37:00,
2013-11-14 21:39:00,34.0,11.1,23.68,North,0,2.5,2.5,38,0.00,,,0.21,VWS V14.01,2013-11-15 04:39:00,
2013-11-14 21:43:00,35.4,10.5,23.68,North,0,2.5,2.5,35,0.00,,,0.21,VWS V14.01,2013-11-15 04:43:00,
2013-11-14 21:44:00,34.0,11.1,23.65,North,0,2.5,2.5,38,0.00,,,0.21,VWS V14.01,2013-11-15 04:44:00,
2013-11-14 21:47:00,35.1,10.2,23.68,North,0,2.5,2.5,35,0.00,,,0.21,VWS V14.01,2013-11-15 04:47:00,
2013-11-14 21:48:00,35.1,10.2,23.68,North,0,2.5,2.5,35,0.00,,,0.21,VWS V14.01,2013-11-15 04:48:00,
2013-11-14 21:49:00,34.0,11.1,23.65,North,0,2.5,2.5,38,0.00,,,0.21,VWS V14.01,2013-11-15 04:49:00,
2013-11-14 21:53:00,35.4,10.5,23.68,North,0,2.5,2.5,35,0.00,,,0.21,VWS V14.01,2013-11-15 04:53:00,
2013-11-14 21:54:00,34.0,11.1,23.65,North,0,2.5,2.5,38,0.00,,,0.21,VWS V14.01,2013-11-15 04:54:00,
2013-11-14 21:59:00,34.3,12.0,23.68,North,0,2.5,2.5,39,0.00,,,0.21,VWS V14.01,2013-11-15 04:59:00,
2013-11-14 22:16:00,33.8,10.9,23.65,North,0,2.5,2.5,38,0.00,,,0.21,VWS V14.01,2013-11-15 05:16:00,
2013-11-14 22:22:00,33.8,10.9,23.65,North,0,2.5,2.5,38,0.00,,,0.21,VWS V14.01,2013-11-15 05:22:00,
2013-11-14 22:27:00,34.5,10.9,23.65,North,0,2.5,2.5,37,0.00,,,0.21,VWS V14.01,2013-11-15 05:27:00,
2013-11-14 22:32:00,35.1,11.4,23.65,North,0,2.5,2.5,37,0.00,,,0.21,VWS V14.01,2013-11-15 05:32:00,
2013-11-14 22:37:00,35.4,11.1,23.65,North,0,2.5,2.5,36,0.00,,,0.21,VWS V14.01,2013-11-15 05:37:00,
2013-11-14 22:42:00,35.8,10.8,23.65,North,0,2.5,2.5,35,0.00,,,0.21,VWS V14.01,2013-11-15 05:42:00,
2013-11-14 22:47:00,35.2,10.3,23.68,North,0,2.5,2.5,35,0.00,,,0.21,VWS V14.01,2013-11-15 05:47:00,
2013-11-14 22:52:00,35.4,10.5,23.68,North,0,2.5,2.5,35,0.00,,,0.21,VWS V14.01,2013-11-15 05:52:00,
2013-11-14 22:57:00,35.2,10.3,23.68,North,0,2.5,2.5,35,0.00,,,0.21,VWS V14.01,2013-11-15 05:57:00,
2013-11-14 23:02:00,34.7,9.9,23.68,North,0,2.5,2.5,35,0.00,,,0.21,VWS V14.01,2013-11-15 06:02:00,
2013-11-14 23:07:00,33.8,9.1,23.68,North,0,2.5,2.5,35,0.00,,,0.21,VWS V14.01,2013-11-15 06:07:00,
2013-11-14 23:12:00,33.3,9.2,23.68,North,0,2.5,2.5,36,0.00,,,0.21,VWS V14.01,2013-11-15 06:12:00,
2013-11-14 23:17:00,33.1,9.7,23.68,North,0,2.5,2.5,37,0.00,,,0.21,VWS V14.01,2013-11-15 06:17:00,
2013-11-14 23:22:00,32.7,9.9,23.68,North,0,2.5,2.5,38,0.00,,,0.21,VWS V14.01,2013-11-15 06:22:00,
2013-11-14 23:27:00,32.4,10.2,23.68,North,0,2.5,2.5,39,0.00,,,0.21,VWS V14.01,2013-11-15 06:27:00,
2013-11-14 23:32:00,32.2,10.0,23.68,North,0,2.5,2.5,39,0.00,,,0.21,VWS V14.01,2013-11-15 06:32:00,
2013-11-14 23:37:00,32.2,10.6,23.68,North,0,2.5,2.5,40,0.00,,,0.21,VWS V14.01,2013-11-15 06:37:00,
2013-11-14 23:42:00,32.0,11.0,23.68,North,0,2.5,2.5,41,0.00,,,0.21,VWS V14.01,2013-11-15 06:42:00,
2013-11-14 23:47:00,31.5,10.5,23.68,North,0,2.5,2.5,41,0.00,,,0.21,VWS V14.01,2013-11-15 06:47:00,
2013-11-14 23:52:00,31.3,10.9,23.68,North,0,2.5,2.5,42,0.00,,,0.21,VWS V14.01,2013-11-15 06:52:00,
2013-11-14 23:57:00,31.1,10.7,23.68,North,0,2.5,2.5,42,0.00,,,0.21,VWS V14.01,2013-11-15 06:57:00,